Time,TemperatureF,DewpointF,PressureIn,WindDirection,WindDirectionDegrees,WindSpeedMPH,WindSpeedGustMPH,Humidity,HourlyPrecipIn,Conditions,Clouds,dailyrainin,SoftwareType,DateUTC
2015-07-30 00:03:00,76.0,74.0,29.91,SW,228,0.0,2.0,93,-99.99,,,-99.99,,2015-07-30 04:03:00,
2015-07-30 00:13:00,76.0,74.0,29.91,SW,225,0.0,1.0,93,-99.99,,,-99.99,,2015-07-30 04:13:00,
2015-07-30 00:23:00,76.0,74.0,29.91,SW,225,0.0,0.0,93,-99.99,,,-99.99,,2015-07-30 04:23:00,
2015-07-30 00:34:00,76.0,74.0,29.91,SW,225,0.0,0.0,93,-99.99,,,-99.99,,2015-07-30 04:34:00,
2015-07-30 00:43:00,76.0,74.0,29.91,SW,225,0.0,0.0,93,-99.99,,,-99.99,,2015-07-30 04:43:00,
2015-07-30 00:53:00,76.0,74.0,29.91,SW,232,0.0,0.0,93,-99.99,,,-99.99,,2015-07-30 04:53:00,
2015-07-30 01:03:00,76.0,74.0,29.91,SW,232,0.0,0.0,93,-99.99,,,-99.99,,2015-07-30 05:03:00,
2015-07-30 01:13:00,75.0,73.0,29.91,SW,233,0.0,1.0,93,-99.99,,,-99.99,,2015-07-30 05:13:00,
2015-07-30 01:23:00,75.0,73.0,29.91,SW,232,0.0,1.0,93,-99.99,,,-99.99,,2015-07-30 05:23:00,
2015-07-30 01:33:00,75.0,73.0,29.91,SW,235,0.0,1.0,94,-99.99,,,-99.99,,2015-07-30 05:33:00,
2015-07-30 01:44:00,75.0,73.0,29.91,SW,235,0.0,1.0,94,-99.99,,,-99.99,,2015-07-30 05:44:00,
2015-07-30 01:53:00,75.0,73.0,29.91,WSW,238,0.0,1.0,94,-99.99,,,-99.99,,2015-07-30 05:53:00,
2015-07-30 02:03:00,75.0,73.0,29.91,WSW,238,0.0,0.0,94,-99.99,,,-99.99,,2015-07-30 06:03:00,
2015-07-30 02:33:00,75.0,73.0,29.91,West,271,0.0,5.0,94,-99.99,,,-99.99,,2015-07-30 06:33:00,
2015-07-30 02:44:00,75.0,73.0,29.91,WNW,287,1.0,3.0,93,-99.99,,,-99.99,,2015-07-30 06:44:00,
2015-07-30 03:03:00,75.0,72.0,29.92,WNW,293,0.0,1.0,91,-99.99,,,-99.99,,2015-07-30 07:03:00,
2015-07-30 03:12:00,75.0,72.0,29.92,West,277,0.0,3.0,90,-99.99,,,-99.99,,2015-07-30 07:12:00,
2015-07-30 03:23:00,75.0,72.0,29.91,West,278,0.0,1.0,89,-99.99,,,-99.99,,2015-07-30 07:23:00,
2015-07-30 03:33:00,74.0,70.0,29.92,West,278,0.0,1.0,88,-99.99,,,-99.99,,2015-07-30 07:33:00,
2015-07-30 03:43:00,74.0,70.0,29.91,West,275,0.0,0.0,88,-99.99,,,-99.99,,2015-07-30 07:43:00,
2015-07-30 03:53:00,74.0,70.0,29.91,WNW,285,0.0,2.0,88,-99.99,,,-99.99,,2015-07-30 07:53:00,
2015-07-30 04:03:00,74.0,70.0,29.91,WNW,285,0.0,3.0,88,-99.99,,,-99.99,,2015-07-30 08:03:00,
2015-07-30 04:12:00,74.0,70.0,29.92,WNW,285,0.0,1.0,88,-99.99,,,-99.99,,2015-07-30 08:12:00,
2015-07-30 04:23:00,74.0,70.0,29.92,NW,318,0.0,1.0,87,-99.99,,,-99.99,,2015-07-30 08:23:00,
2015-07-30 04:33:00,74.0,70.0,29.92,NW,317,0.0,1.0,87,-99.99,,,-99.99,,2015-07-30 08:33:00,
2015-07-30 04:43:00,74.0,70.0,29.92,WNW,301,0.0,1.0,87,-99.99,,,-99.99,,2015-07-30 08:43:00,
2015-07-30 04:53:00,73.0,69.0,29.93,WNW,289,0.0,1.0,87,-99.99,,,-99.99,,2015-07-30 08:53:00,
2015-07-30 05:03:00,73.0,69.0,29.93,WNW,290,0.0,0.0,87,-99.99,,,-99.99,,2015-07-30 09:03:00,
2015-07-30 05:13:00,73.0,69.0,29.93,WNW,290,0.0,0.0,87,-99.99,,,-99.99,,2015-07-30 09:13:00,
2015-07-30 05:23:00,73.0,69.0,29.93,NW,307,0.0,3.0,87,-99.99,,,-99.99,,2015-07-30 09:23:00,
2015-07-30 05:33:00,72.0,68.0,29.93,WNW,301,2.0,5.0,86,-99.99,,,-99.99,,2015-07-30 09:33:00,
2015-07-30 05:53:00,72.0,68.0,29.94,NW,318,2.0,3.0,86,-99.99,,,-99.99,,2015-07-30 09:53:00,
2015-07-30 06:03:00,71.0,66.0,29.94,WNW,301,1.0,5.0,85,-99.99,,,-99.99,,2015-07-30 10:03:00,
2015-07-30 06:13:00,71.0,66.0,29.94,WNW,295,1.0,3.0,85,-99.99,,,-99.99,,2015-07-30 10:13:00,
2015-07-30 06:23:00,71.0,66.0,29.95,West,281,0.0,3.0,85,-99.99,,,-99.99,,2015-07-30 10:23:00,
2015-07-30 06:33:00,70.0,65.0,29.95,West,275,0.0,5.0,84,-99.99,,,-99.99,,2015-07-30 10:33:00,
2015-07-30 06:43:00,70.0,65.0,29.95,West,278,0.0,5.0,84,-99.99,,,-99.99,,2015-07-30 10:43:00,
2015-07-30 06:53:00,70.0,65.0,29.96,WNW,291,0.0,3.0,84,-99.99,,,-99.99,,2015-07-30 10:53:00,
2015-07-30 07:04:00,69.0,64.0,29.96,WNW,291,0.0,1.0,84,-99.99,,,-99.99,,2015-07-30 11:04:00,
2015-07-30 07:23:00,69.0,64.0,29.96,WNW,292,0.0,3.0,84,-99.99,,,-99.99,,2015-07-30 11:23:00,
2015-07-30 07:34:00,69.0,64.0,29.97,WNW,292,0.0,1.0,84,-99.99,,,-99.99,,2015-07-30 11:34:00,
2015-07-30 07:44:00,69.0,64.0,29.97,WNW,292,0.0,2.0,84,-99.99,,,-99.99,,2015-07-30 11:44:00,
2015-07-30 07:54:00,68.0,63.0,29.97,WNW,292,0.0,1.0,85,-99.99,,,-99.99,,2015-07-30 11:54:00,
2015-07-30 08:03:00,69.0,64.0,29.97,WNW,299,0.0,3.0,84,-99.99,,,-99.99,,2015-07-30 12:03:00,
2015-07-30 08:13:00,69.0,64.0,29.97,WNW,299,0.0,2.0,84,-99.99,,,-99.99,,2015-07-30 12:13:00,
2015-07-30 08:23:00,70.0,65.0,29.98,WNW,299,0.0,1.0,83,-99.99,,,-99.99,,2015-07-30 12:23:00,
2015-07-30 08:34:00,71.0,65.0,29.98,WNW,299,0.0,1.0,80,-99.99,,,-99.99,,2015-07-30 12:34:00,
2015-07-30 08:44:00,71.0,64.0,29.98,West,272,1.0,3.0,78,-99.99,,,-99.99,,2015-07-30 12:44:00,
2015-07-30 09:03:00,72.0,64.0,29.99,NW,326,1.0,5.0,76,-99.99,,,-99.99,,2015-07-30 13:03:00,
2015-07-30 09:13:00,72.0,63.0,29.99,NNW,336,2.0,6.0,74,-99.99,,,-99.99,,2015-07-30 13:13:00,
2015-07-30 09:23:00,73.0,64.0,29.99,WNW,285,0.0,5.0,74,-99.99,,,-99.99,,2015-07-30 13:23:00,
2015-07-30 09:33:00,74.0,65.0,29.99,NNW,334,0.0,5.0,74,-99.99,,,-99.99,,2015-07-30 13:33:00,
2015-07-30 09:43:00,74.0,64.0,29.99,NNW,334,0.0,3.0,71,-99.99,,,-99.99,,2015-07-30 13:43:00,
2015-07-30 09:53:00,75.0,65.0,30.00,NNW,327,1.0,3.0,71,-99.99,,,-99.99,,2015-07-30 13:53:00,
2015-07-30 10:03:00,75.0,64.0,30.00,WNW,292,1.0,6.0,69,-99.99,,,-99.99,,2015-07-30 14:03:00,
2015-07-30 10:13:00,76.0,64.0,30.00,NW,319,1.0,6.0,67,-99.99,,,-99.99,,2015-07-30 14:13:00,
2015-07-30 10:23:00,76.0,64.0,30.00,WNW,294,1.0,6.0,67,-99.99,,,-99.99,,2015-07-30 14:23:00,
2015-07-30 10:33:00,77.0,65.0,30.00,WNW,290,1.0,6.0,66,-99.99,,,-99.99,,2015-07-30 14:33:00,
2015-07-30 10:43:00,78.0,66.0,30.00,WNW,297,1.0,5.0,67,-99.99,,,-99.99,,2015-07-30 14:43:00,
2015-07-30 11:13:00,79.0,65.0,30.00,WNW,288,1.0,3.0,63,-99.99,,,-99.99,,2015-07-30 15:13:00,
2015-07-30 11:23:00,80.0,66.0,30.00,North,349,2.0,6.0,63,-99.99,,,-99.99,,2015-07-30 15:23:00,
2015-07-30 11:33:00,80.0,65.0,30.00,WNW,288,0.0,3.0,61,-99.99,,,-99.99,,2015-07-30 15:33:00,
2015-07-30 11:43:00,80.0,64.0,30.00,West,268,1.0,3.0,59,-99.99,,,-99.99,,2015-07-30 15:43:00,
2015-07-30 11:55:00,80.0,64.0,30.00,SE,139,0.0,3.0,59,-99.99,,,-99.99,,2015-07-30 15:55:00,
2015-07-30 12:13:00,81.0,64.0,30.01,West,268,1.0,-999.0,57,-99.99,,,-99.99,,2015-07-30 16:13:00,
2015-07-30 12:23:00,82.0,66.0,30.01,North,10,2.0,7.0,58,-99.99,,,-99.99,,2015-07-30 16:23:00,
2015-07-30 12:35:00,82.0,64.0,30.00,West,277,0.0,7.0,54,-99.99,,,-99.99,,2015-07-30 16:35:00,
2015-07-30 12:44:00,82.0,64.0,30.00,NW,317,3.0,7.0,54,-99.99,,,-99.99,,2015-07-30 16:44:00,
2015-07-30 13:04:00,83.0,64.0,30.00,NNW,328,1.0,6.0,52,-99.99,,,-99.99,,2015-07-30 17:04:00,
2015-07-30 13:15:00,83.0,64.0,30.00,NNW,328,1.0,6.0,52,-99.99,,,-99.99,,2015-07-30 17:15:00,
2015-07-30 13:24:00,84.0,64.0,29.99,West,280,2.0,8.0,52,-99.99,,,-99.99,,2015-07-30 17:24:00,
2015-07-30 13:34:00,84.0,64.0,29.99,WSW,258,2.0,6.0,52,-99.99,,,-99.99,,2015-07-30 17:34:00,
2015-07-30 13:44:00,84.0,63.0,29.99,WNW,300,6.0,9.0,49,-99.99,,,-99.99,,2015-07-30 17:44:00,
2015-07-30 13:54:00,84.0,64.0,29.99,West,269,3.0,7.0,51,-99.99,,,-99.99,,2015-07-30 17:54:00,
2015-07-30 14:04:00,84.0,62.0,29.99,WNW,284,3.0,8.0,48,-99.99,,,-99.99,,2015-07-30 18:04:00,
2015-07-30 14:16:00,84.0,62.0,29.99,WNW,290,3.0,8.0,47,-99.99,,,-99.99,,2015-07-30 18:16:00,
2015-07-30 14:23:00,84.0,63.0,29.99,NW,316,2.0,9.0,49,-99.99,,,-99.99,,2015-07-30 18:23:00,
2015-07-30 14:34:00,84.0,63.0,29.99,NW,311,2.0,9.0,50,-99.99,,,-99.99,,2015-07-30 18:34:00,
2015-07-30 14:44:00,85.0,63.0,29.99,NW,313,2.0,10.0,48,-99.99,,,-99.99,,2015-07-30 18:44:00,
2015-07-30 15:04:00,85.0,64.0,29.99,WSW,248,3.0,8.0,50,-99.99,,,-99.99,,2015-07-30 19:04:00,
2015-07-30 15:13:00,85.0,63.0,29.99,West,275,4.0,10.0,48,-99.99,,,-99.99,,2015-07-30 19:13:00,
2015-07-30 15:34:00,84.0,63.0,29.99,WNW,283,5.0,12.0,50,-99.99,,,-99.99,,2015-07-30 19:34:00,
2015-07-30 15:44:00,85.0,63.0,29.99,WSW,251,3.0,12.0,48,-99.99,,,-99.99,,2015-07-30 19:44:00,
2015-07-30 15:54:00,85.0,64.0,29.99,WNW,296,2.0,13.0,49,-99.99,,,-99.99,,2015-07-30 19:54:00,
2015-07-30 16:03:00,85.0,62.0,29.98,West,265,3.0,9.0,47,-99.99,,,-99.99,,2015-07-30 20:03:00,
2015-07-30 16:13:00,86.0,63.0,29.98,West,260,7.0,-999.0,46,-99.99,,,-99.99,,2015-07-30 20:13:00,
2015-07-30 16:23:00,85.0,62.0,29.98,WNW,283,5.0,10.0,47,-99.99,,,-99.99,,2015-07-30 20:23:00,
2015-07-30 16:33:00,86.0,65.0,29.98,WNW,287,3.0,12.0,49,-99.99,,,-99.99,,2015-07-30 20:33:00,
2015-07-30 16:44:00,85.0,63.0,29.98,WSW,258,3.0,10.0,48,-99.99,,,-99.99,,2015-07-30 20:44:00,
2015-07-30 16:54:00,84.0,62.0,29.97,WSW,252,2.0,12.0,48,-99.99,,,-99.99,,2015-07-30 20:54:00,